This is the latest recevied weather packets stored in our database for station/object JR4VEV-13. If no packets are shown the sender has not sent any weather packets the latest 1 day(s).
| Time | Temp. | Humidity | Pressure | Rain* | Wind** | Luminosity | Snow |
|---|---|---|---|---|---|---|---|
| 1778114558 | 21.11° C | 66% | 1015.2 hPa | 0 mm | - | - | - |
| 1778113958 | 20.56° C | 68% | 1015.3 hPa | 0 mm | - | - | - |
| 1778113358 | 20.56° C | 71% | 1015.3 hPa | 0 mm | - | - | - |
| 1778112758 | 19.44° C | 75% | 1015.5 hPa | 0 mm | - | - | - |
| 1778112159 | 18.33° C | 79% | 1015.6 hPa | 0 mm | - | - | - |
| 1778110958 | 17.22° C | 80% | 1015.7 hPa | 0 mm | - | - | - |
| 1778109159 | 15.56° C | 85% | 1016.2 hPa | 0 mm | - | - | - |
| 1778107958 | 15° C | 87% | 1016.5 hPa | 0 mm | - | - | - |
| 1778106759 | 13.89° C | 89% | 1016.5 hPa | 0 mm | - | - | - |
| 1778102557 | 11.67° C | 95% | 1016.7 hPa | 0 mm | - | - | - |
| 1778101357 | 11.11° C | 96% | 1016.8 hPa | 0 mm | - | - | - |
| 1778100757 | 11.11° C | 96% | 1016.9 hPa | 0 mm | - | - | - |
| 1778099558 | 11.11° C | 96% | 1016.6 hPa | 0 mm | - | - | - |
| 1778098020 | 10.56° C | 96% | 1016.5 hPa | 0 mm | - | - | - |
| 1778097757 | 10.56° C | 96% | 1016.4 hPa | 0 mm | - | - | - |
| 1778096558 | 10.56° C | 95% | 1016.4 hPa | 0 mm | - | - | - |
| 1778095958 | 11.11° C | 95% | 1016.4 hPa | 0 mm | - | - | - |
| 1778094158 | 11.11° C | 95% | 1016.8 hPa | 0 mm | - | - | - |
| 1778092957 | 11.11° C | 95% | 1016.8 hPa | 0 mm | - | - | - |
| 1778088758 | 11.11° C | 95% | 1017.1 hPa | 0 mm | - | - | - |
| 1778087558 | 11.11° C | 95% | 1017.1 hPa | 0 mm | - | - | - |
| 1778086957 | 11.11° C | 95% | 1017.1 hPa | 0 mm | - | - | - |
| 1778085158 | 11.67° C | 95% | 1017.2 hPa | 0 mm | - | - | - |
| 1778083957 | 11.67° C | 95% | 1017.3 hPa | 0 mm | - | - | - |
| 1778083357 | 11.67° C | 94% | 1017.5 hPa | 0 mm | - | - | - |
* Rain latest hour (hover to see other rain measurements)
** Current wind speed in m/s (hover to see current wind gust speed)